sensor_id;sensor_type;location;lat;lon;timestamp;P1;durP1;ratioP1;P2;durP2;ratioP2
61840;SDS011;47773;53.174;6.614;2024-02-28T00:02:09;41.65;;;19.20;;
61840;SDS011;47773;53.174;6.614;2024-02-28T00:04:35;45.78;;;18.90;;
61840;SDS011;47773;53.174;6.614;2024-02-28T00:07:00;42.45;;;19.20;;
61840;SDS011;47773;53.174;6.614;2024-02-28T00:09:26;47.22;;;20.35;;
61840;SDS011;47773;53.174;6.614;2024-02-28T00:11:52;42.15;;;18.50;;
61840;SDS011;47773;53.174;6.614;2024-02-28T00:14:17;43.05;;;18.77;;
61840;SDS011;47773;53.174;6.614;2024-02-28T00:16:44;42.65;;;19.05;;
61840;SDS011;47773;53.174;6.614;2024-02-28T00:19:11;42.42;;;19.25;;
61840;SDS011;47773;53.174;6.614;2024-02-28T00:21:37;41.72;;;19.17;;
61840;SDS011;47773;53.174;6.614;2024-02-28T00:24:03;45.45;;;19.42;;
61840;SDS011;47773;53.174;6.614;2024-02-28T00:26:29;42.03;;;17.90;;
61840;SDS011;47773;53.174;6.614;2024-02-28T00:28:55;55.17;;;18.50;;
61840;SDS011;47773;53.174;6.614;2024-02-28T00:31:21;46.83;;;18.98;;
61840;SDS011;47773;53.174;6.614;2024-02-28T00:33:47;51.83;;;18.98;;
61840;SDS011;47773;53.174;6.614;2024-02-28T00:36:13;50.08;;;20.17;;
61840;SDS011;47773;53.174;6.614;2024-02-28T00:38:40;41.08;;;17.77;;
61840;SDS011;47773;53.174;6.614;2024-02-28T00:41:06;43.35;;;18.60;;
61840;SDS011;47773;53.174;6.614;2024-02-28T00:43:32;48.05;;;18.48;;
61840;SDS011;47773;53.174;6.614;2024-02-28T00:45:57;45.03;;;19.67;;
61840;SDS011;47773;53.174;6.614;2024-02-28T00:48:23;47.35;;;19.75;;
61840;SDS011;47773;53.174;6.614;2024-02-28T00:50:49;50.28;;;20.20;;
61840;SDS011;47773;53.174;6.614;2024-02-28T00:53:15;44.33;;;18.63;;
61840;SDS011;47773;53.174;6.614;2024-02-28T00:55:42;63.20;;;20.65;;
61840;SDS011;47773;53.174;6.614;2024-02-28T00:58:07;47.50;;;19.25;;
61840;SDS011;47773;53.174;6.614;2024-02-28T01:48:28;35.95;;;17.23;;
61840;SDS011;47773;53.174;6.614;2024-02-28T01:50:54;37.83;;;16.33;;
61840;SDS011;47773;53.174;6.614;2024-02-28T01:53:20;37.88;;;16.63;;
61840;SDS011;47773;53.174;6.614;2024-02-28T01:55:47;40.72;;;18.00;;
61840;SDS011;47773;53.174;6.614;2024-02-28T01:58:12;40.75;;;16.65;;
61840;SDS011;47773;53.174;6.614;2024-02-28T02:00:38;37.83;;;17.55;;
61840;SDS011;47773;53.174;6.614;2024-02-28T02:03:05;37.92;;;17.45;;
61840;SDS011;47773;53.174;6.614;2024-02-28T02:05:30;37.55;;;16.95;;
61840;SDS011;47773;53.174;6.614;2024-02-28T02:07:59;34.78;;;16.42;;
61840;SDS011;47773;53.174;6.614;2024-02-28T02:10:26;39.55;;;17.08;;
61840;SDS011;47773;53.174;6.614;2024-02-28T02:12:51;35.83;;;17.35;;
61840;SDS011;47773;53.174;6.614;2024-02-28T02:15:17;37.35;;;16.98;;
61840;SDS011;47773;53.174;6.614;2024-02-28T02:17:43;38.75;;;18.55;;
61840;SDS011;47773;53.174;6.614;2024-02-28T02:20:13;36.53;;;16.52;;
61840;SDS011;47773;53.174;6.614;2024-02-28T02:22:39;37.25;;;16.27;;
61840;SDS011;47773;53.174;6.614;2024-02-28T02:25:05;32.40;;;15.25;;
61840;SDS011;47773;53.174;6.614;2024-02-28T02:27:31;32.97;;;15.25;;
61840;SDS011;47773;53.174;6.614;2024-02-28T02:29:57;36.53;;;17.48;;
61840;SDS011;47773;53.174;6.614;2024-02-28T02:32:22;40.33;;;16.60;;
61840;SDS011;47773;53.174;6.614;2024-02-28T02:34:48;38.42;;;15.43;;
61840;SDS011;47773;53.174;6.614;2024-02-28T02:37:14;38.50;;;17.63;;
61840;SDS011;47773;53.174;6.614;2024-02-28T02:39:40;36.15;;;16.70;;
61840;SDS011;47773;53.174;6.614;2024-02-28T02:42:05;38.05;;;18.00;;
61840;SDS011;47773;53.174;6.614;2024-02-28T02:44:31;40.00;;;17.27;;
61840;SDS011;47773;53.174;6.614;2024-02-28T02:46:57;37.95;;;18.13;;
61840;SDS011;47773;53.174;6.614;2024-02-28T02:49:22;35.00;;;17.15;;
61840;SDS011;47773;53.174;6.614;2024-02-28T02:51:48;41.45;;;17.15;;
61840;SDS011;47773;53.174;6.614;2024-02-28T02:54:13;34.90;;;16.50;;
61840;SDS011;47773;53.174;6.614;2024-02-28T02:56:42;36.05;;;16.58;;
61840;SDS011;47773;53.174;6.614;2024-02-28T02:59:09;35.35;;;17.40;;
61840;SDS011;47773;53.174;6.614;2024-02-28T03:01:36;38.25;;;17.38;;
61840;SDS011;47773;53.174;6.614;2024-02-28T03:04:01;39.55;;;17.20;;
61840;SDS011;47773;53.174;6.614;2024-02-28T03:06:27;38.17;;;17.08;;
61840;SDS011;47773;53.174;6.614;2024-02-28T03:08:53;36.78;;;17.48;;
61840;SDS011;47773;53.174;6.614;2024-02-28T03:11:18;35.10;;;16.50;;
61840;SDS011;47773;53.174;6.614;2024-02-28T03:13:44;36.53;;;17.08;;
61840;SDS011;47773;53.174;6.614;2024-02-28T03:16:09;35.10;;;17.15;;
61840;SDS011;47773;53.174;6.614;2024-02-28T03:18:35;38.33;;;17.88;;
61840;SDS011;47773;53.174;6.614;2024-02-28T03:21:01;37.22;;;17.55;;
61840;SDS011;47773;53.174;6.614;2024-02-28T03:23:27;37.22;;;17.50;;
61840;SDS011;47773;53.174;6.614;2024-02-28T03:25:52;37.28;;;18.20;;
61840;SDS011;47773;53.174;6.614;2024-02-28T03:28:18;35.85;;;17.48;;
61840;SDS011;47773;53.174;6.614;2024-02-28T03:30:44;33.00;;;16.88;;
61840;SDS011;47773;53.174;6.614;2024-02-28T03:33:09;38.97;;;18.15;;
61840;SDS011;47773;53.174;6.614;2024-02-28T03:35:35;37.20;;;18.30;;
61840;SDS011;47773;53.174;6.614;2024-02-28T03:38:00;39.08;;;18.17;;
61840;SDS011;47773;53.174;6.614;2024-02-28T03:40:26;35.30;;;16.92;;
61840;SDS011;47773;53.174;6.614;2024-02-28T03:42:51;39.55;;;18.85;;
61840;SDS011;47773;53.174;6.614;2024-02-28T03:45:17;35.25;;;17.65;;
61840;SDS011;47773;53.174;6.614;2024-02-28T03:47:44;38.83;;;17.95;;
61840;SDS011;47773;53.174;6.614;2024-02-28T03:50:10;38.67;;;17.83;;
61840;SDS011;47773;53.174;6.614;2024-02-28T03:52:36;35.50;;;17.88;;
61840;SDS011;47773;53.174;6.614;2024-02-28T03:55:01;37.97;;;18.38;;
61840;SDS011;47773;53.174;6.614;2024-02-28T03:57:28;41.22;;;18.02;;
61840;SDS011;47773;53.174;6.614;2024-02-28T03:59:53;37.42;;;18.08;;
61840;SDS011;47773;53.174;6.614;2024-02-28T04:02:19;40.05;;;18.25;;
61840;SDS011;47773;53.174;6.614;2024-02-28T04:04:45;42.25;;;18.95;;
61840;SDS011;47773;53.174;6.614;2024-02-28T04:07:10;39.20;;;17.58;;
61840;SDS011;47773;53.174;6.614;2024-02-28T04:09:36;38.47;;;18.08;;
61840;SDS011;47773;53.174;6.614;2024-02-28T04:12:01;38.97;;;17.67;;
61840;SDS011;47773;53.174;6.614;2024-02-28T04:14:28;39.58;;;17.92;;
61840;SDS011;47773;53.174;6.614;2024-02-28T04:16:54;39.90;;;19.10;;
61840;SDS011;47773;53.174;6.614;2024-02-28T04:19:19;37.80;;;17.20;;
61840;SDS011;47773;53.174;6.614;2024-02-28T04:21:45;36.70;;;18.45;;
61840;SDS011;47773;53.174;6.614;2024-02-28T04:24:10;39.90;;;18.23;;
61840;SDS011;47773;53.174;6.614;2024-02-28T04:26:36;38.58;;;18.33;;
61840;SDS011;47773;53.174;6.614;2024-02-28T04:29:02;40.45;;;18.45;;
61840;SDS011;47773;53.174;6.614;2024-02-28T04:31:32;39.10;;;18.20;;
61840;SDS011;47773;53.174;6.614;2024-02-28T04:33:58;42.13;;;19.17;;
61840;SDS011;47773;53.174;6.614;2024-02-28T04:36:24;41.67;;;18.63;;
61840;SDS011;47773;53.174;6.614;2024-02-28T04:38:49;39.95;;;17.67;;
61840;SDS011;47773;53.174;6.614;2024-02-28T04:41:15;38.10;;;17.45;;
61840;SDS011;47773;53.174;6.614;2024-02-28T04:43:40;43.47;;;19.23;;
61840;SDS011;47773;53.174;6.614;2024-02-28T04:46:06;36.75;;;18.33;;
61840;SDS011;47773;53.174;6.614;2024-02-28T04:48:32;39.42;;;18.42;;
61840;SDS011;47773;53.174;6.614;2024-02-28T04:50:57;39.22;;;17.95;;
61840;SDS011;47773;53.174;6.614;2024-02-28T04:53:24;41.67;;;18.30;;
61840;SDS011;47773;53.174;6.614;2024-02-28T04:55:49;38.03;;;17.27;;
61840;SDS011;47773;53.174;6.614;2024-02-28T04:58:15;39.00;;;18.83;;
61840;SDS011;47773;53.174;6.614;2024-02-28T05:00:41;41.05;;;18.52;;
61840;SDS011;47773;53.174;6.614;2024-02-28T05:03:06;36.92;;;17.63;;
61840;SDS011;47773;53.174;6.614;2024-02-28T05:05:32;39.22;;;18.70;;
61840;SDS011;47773;53.174;6.614;2024-02-28T05:07:58;39.65;;;18.63;;
61840;SDS011;47773;53.174;6.614;2024-02-28T05:10:24;35.22;;;17.70;;
61840;SDS011;47773;53.174;6.614;2024-02-28T05:12:49;40.00;;;18.10;;
61840;SDS011;47773;53.174;6.614;2024-02-28T05:15:15;38.15;;;18.15;;
61840;SDS011;47773;53.174;6.614;2024-02-28T05:17:42;40.38;;;18.17;;
61840;SDS011;47773;53.174;6.614;2024-02-28T05:20:08;42.58;;;18.80;;
61840;SDS011;47773;53.174;6.614;2024-02-28T05:22:34;38.40;;;18.27;;
61840;SDS011;47773;53.174;6.614;2024-02-28T05:24:59;41.40;;;18.73;;
61840;SDS011;47773;53.174;6.614;2024-02-28T05:27:26;41.17;;;18.25;;
61840;SDS011;47773;53.174;6.614;2024-02-28T05:29:52;36.67;;;17.77;;
61840;SDS011;47773;53.174;6.614;2024-02-28T05:32:18;46.55;;;20.42;;
61840;SDS011;47773;53.174;6.614;2024-02-28T05:34:43;37.75;;;17.45;;
61840;SDS011;47773;53.174;6.614;2024-02-28T05:37:09;38.85;;;18.38;;
61840;SDS011;47773;53.174;6.614;2024-02-28T05:39:34;40.88;;;19.35;;
61840;SDS011;47773;53.174;6.614;2024-02-28T05:42:00;39.03;;;19.60;;
61840;SDS011;47773;53.174;6.614;2024-02-28T05:44:26;43.17;;;19.08;;
61840;SDS011;47773;53.174;6.614;2024-02-28T05:46:51;43.50;;;19.23;;
61840;SDS011;47773;53.174;6.614;2024-02-28T05:49:17;38.33;;;17.92;;
61840;SDS011;47773;53.174;6.614;2024-02-28T05:51:43;42.08;;;19.30;;
61840;SDS011;47773;53.174;6.614;2024-02-28T05:54:10;41.83;;;19.33;;
61840;SDS011;47773;53.174;6.614;2024-02-28T05:56:35;39.72;;;19.27;;
61840;SDS011;47773;53.174;6.614;2024-02-28T05:59:01;39.28;;;17.83;;
61840;SDS011;47773;53.174;6.614;2024-02-28T06:01:27;35.45;;;17.35;;
61840;SDS011;47773;53.174;6.614;2024-02-28T06:03:53;41.50;;;19.95;;
61840;SDS011;47773;53.174;6.614;2024-02-28T06:06:18;40.72;;;19.23;;
61840;SDS011;47773;53.174;6.614;2024-02-28T06:08:44;37.75;;;19.38;;
61840;SDS011;47773;53.174;6.614;2024-02-28T06:11:10;42.72;;;19.48;;
61840;SDS011;47773;53.174;6.614;2024-02-28T06:13:36;40.92;;;19.08;;
61840;SDS011;47773;53.174;6.614;2024-02-28T06:16:02;40.10;;;19.25;;
61840;SDS011;47773;53.174;6.614;2024-02-28T06:18:28;38.38;;;18.15;;
61840;SDS011;47773;53.174;6.614;2024-02-28T06:20:58;40.53;;;19.27;;
61840;SDS011;47773;53.174;6.614;2024-02-28T06:23:24;44.70;;;19.00;;
61840;SDS011;47773;53.174;6.614;2024-02-28T06:25:50;40.15;;;18.45;;
61840;SDS011;47773;53.174;6.614;2024-02-28T06:28:16;43.45;;;19.05;;
61840;SDS011;47773;53.174;6.614;2024-02-28T06:30:45;37.15;;;18.98;;
61840;SDS011;47773;53.174;6.614;2024-02-28T06:33:11;39.40;;;18.85;;
61840;SDS011;47773;53.174;6.614;2024-02-28T06:35:37;42.75;;;18.52;;
61840;SDS011;47773;53.174;6.614;2024-02-28T06:38:03;45.95;;;19.13;;
61840;SDS011;47773;53.174;6.614;2024-02-28T06:40:29;40.13;;;18.52;;
61840;SDS011;47773;53.174;6.614;2024-02-28T06:42:54;43.78;;;19.50;;
61840;SDS011;47773;53.174;6.614;2024-02-28T06:45:20;43.47;;;19.20;;
61840;SDS011;47773;53.174;6.614;2024-02-28T06:47:46;41.75;;;19.35;;
61840;SDS011;47773;53.174;6.614;2024-02-28T06:50:12;42.17;;;19.23;;
61840;SDS011;47773;53.174;6.614;2024-02-28T06:52:37;45.88;;;19.60;;
61840;SDS011;47773;53.174;6.614;2024-02-28T06:55:03;43.58;;;19.10;;
61840;SDS011;47773;53.174;6.614;2024-02-28T06:57:35;42.95;;;19.88;;
61840;SDS011;47773;53.174;6.614;2024-02-28T07:00:02;45.10;;;19.58;;
61840;SDS011;47773;53.174;6.614;2024-02-28T07:02:28;52.38;;;19.70;;
61840;SDS011;47773;53.174;6.614;2024-02-28T07:04:54;45.67;;;19.83;;
61840;SDS011;47773;53.174;6.614;2024-02-28T07:07:19;51.47;;;21.23;;
61840;SDS011;47773;53.174;6.614;2024-02-28T07:09:45;47.58;;;19.70;;
61840;SDS011;47773;53.174;6.614;2024-02-28T07:12:10;49.17;;;20.40;;
61840;SDS011;47773;53.174;6.614;2024-02-28T07:14:36;50.20;;;20.42;;
61840;SDS011;47773;53.174;6.614;2024-02-28T07:17:02;51.10;;;20.48;;
61840;SDS011;47773;53.174;6.614;2024-02-28T07:19:27;54.72;;;20.05;;
61840;SDS011;47773;53.174;6.614;2024-02-28T07:21:53;47.85;;;20.80;;
61840;SDS011;47773;53.174;6.614;2024-02-28T07:24:19;51.17;;;21.05;;
61840;SDS011;47773;53.174;6.614;2024-02-28T07:26:45;46.03;;;21.67;;
61840;SDS011;47773;53.174;6.614;2024-02-28T07:29:11;53.95;;;22.02;;
61840;SDS011;47773;53.174;6.614;2024-02-28T07:31:37;44.75;;;20.70;;
61840;SDS011;47773;53.174;6.614;2024-02-28T07:34:02;44.53;;;20.73;;
61840;SDS011;47773;53.174;6.614;2024-02-28T07:36:28;47.92;;;22.40;;
61840;SDS011;47773;53.174;6.614;2024-02-28T07:38:54;46.85;;;20.67;;
61840;SDS011;47773;53.174;6.614;2024-02-28T07:41:19;40.17;;;20.00;;
61840;SDS011;47773;53.174;6.614;2024-02-28T07:43:45;45.83;;;21.13;;
61840;SDS011;47773;53.174;6.614;2024-02-28T07:46:11;43.38;;;20.55;;
61840;SDS011;47773;53.174;6.614;2024-02-28T07:48:40;40.00;;;20.25;;
61840;SDS011;47773;53.174;6.614;2024-02-28T07:51:08;45.65;;;20.90;;
61840;SDS011;47773;53.174;6.614;2024-02-28T07:53:34;40.80;;;20.63;;
61840;SDS011;47773;53.174;6.614;2024-02-28T07:56:00;40.85;;;19.85;;
61840;SDS011;47773;53.174;6.614;2024-02-28T07:58:26;41.55;;;20.27;;
61840;SDS011;47773;53.174;6.614;2024-02-28T08:00:51;39.10;;;19.35;;
61840;SDS011;47773;53.174;6.614;2024-02-28T08:03:20;42.78;;;20.13;;
61840;SDS011;47773;53.174;6.614;2024-02-28T08:05:45;39.63;;;19.75;;
61840;SDS011;47773;53.174;6.614;2024-02-28T08:08:12;37.65;;;19.27;;
61840;SDS011;47773;53.174;6.614;2024-02-28T08:10:38;44.83;;;20.13;;
61840;SDS011;47773;53.174;6.614;2024-02-28T08:13:04;40.75;;;18.77;;
61840;SDS011;47773;53.174;6.614;2024-02-28T08:15:30;39.08;;;19.27;;
61840;SDS011;47773;53.174;6.614;2024-02-28T08:17:56;38.42;;;18.88;;
61840;SDS011;47773;53.174;6.614;2024-02-28T08:20:21;41.88;;;18.90;;
61840;SDS011;47773;53.174;6.614;2024-02-28T08:22:47;36.70;;;19.25;;
61840;SDS011;47773;53.174;6.614;2024-02-28T08:25:13;41.85;;;18.20;;
61840;SDS011;47773;53.174;6.614;2024-02-28T08:27:39;41.10;;;19.38;;
61840;SDS011;47773;53.174;6.614;2024-02-28T08:30:05;36.28;;;18.58;;
61840;SDS011;47773;53.174;6.614;2024-02-28T08:32:31;36.75;;;19.13;;
61840;SDS011;47773;53.174;6.614;2024-02-28T08:34:58;42.80;;;18.98;;
61840;SDS011;47773;53.174;6.614;2024-02-28T08:37:24;38.88;;;19.23;;
61840;SDS011;47773;53.174;6.614;2024-02-28T08:39:50;40.67;;;18.98;;
61840;SDS011;47773;53.174;6.614;2024-02-28T08:42:16;39.15;;;19.65;;
61840;SDS011;47773;53.174;6.614;2024-02-28T08:44:42;41.05;;;19.10;;
61840;SDS011;47773;53.174;6.614;2024-02-28T08:47:07;44.35;;;19.98;;
61840;SDS011;47773;53.174;6.614;2024-02-28T08:49:34;39.53;;;18.92;;
61840;SDS011;47773;53.174;6.614;2024-02-28T08:52:01;41.63;;;19.30;;
61840;SDS011;47773;53.174;6.614;2024-02-28T08:54:27;35.95;;;19.52;;
61840;SDS011;47773;53.174;6.614;2024-02-28T08:56:52;47.60;;;20.35;;
61840;SDS011;47773;53.174;6.614;2024-02-28T08:59:18;37.35;;;19.02;;
61840;SDS011;47773;53.174;6.614;2024-02-28T09:01:44;42.78;;;20.17;;
61840;SDS011;47773;53.174;6.614;2024-02-28T09:04:09;40.38;;;19.63;;
61840;SDS011;47773;53.174;6.614;2024-02-28T09:06:35;40.30;;;19.40;;
61840;SDS011;47773;53.174;6.614;2024-02-28T09:09:00;40.10;;;19.83;;
61840;SDS011;47773;53.174;6.614;2024-02-28T09:11:26;41.55;;;19.52;;
61840;SDS011;47773;53.174;6.614;2024-02-28T09:13:52;38.03;;;18.80;;
61840;SDS011;47773;53.174;6.614;2024-02-28T09:16:17;46.22;;;20.05;;
61840;SDS011;47773;53.174;6.614;2024-02-28T09:18:44;44.63;;;20.27;;
61840;SDS011;47773;53.174;6.614;2024-02-28T09:21:09;45.40;;;20.48;;
61840;SDS011;47773;53.174;6.614;2024-02-28T09:23:35;45.70;;;20.33;;
61840;SDS011;47773;53.174;6.614;2024-02-28T09:26:04;39.33;;;20.60;;
61840;SDS011;47773;53.174;6.614;2024-02-28T09:28:30;42.67;;;19.85;;
61840;SDS011;47773;53.174;6.614;2024-02-28T09:30:57;42.72;;;20.67;;
61840;SDS011;47773;53.174;6.614;2024-02-28T09:33:22;38.17;;;19.20;;
61840;SDS011;47773;53.174;6.614;2024-02-28T09:35:48;36.03;;;19.25;;
61840;SDS011;47773;53.174;6.614;2024-02-28T09:38:14;36.53;;;18.42;;
61840;SDS011;47773;53.174;6.614;2024-02-28T09:40:40;38.63;;;19.42;;
61840;SDS011;47773;53.174;6.614;2024-02-28T09:43:08;42.10;;;19.42;;
61840;SDS011;47773;53.174;6.614;2024-02-28T09:45:40;40.15;;;19.42;;
61840;SDS011;47773;53.174;6.614;2024-02-28T09:48:06;40.42;;;19.23;;
61840;SDS011;47773;53.174;6.614;2024-02-28T09:50:34;38.47;;;18.60;;
61840;SDS011;47773;53.174;6.614;2024-02-28T09:53:00;39.15;;;19.70;;
61840;SDS011;47773;53.174;6.614;2024-02-28T09:55:26;37.33;;;18.60;;
61840;SDS011;47773;53.174;6.614;2024-02-28T09:57:51;39.33;;;20.30;;
61840;SDS011;47773;53.174;6.614;2024-02-28T10:00:19;40.85;;;19.60;;
61840;SDS011;47773;53.174;6.614;2024-02-28T10:02:46;43.08;;;21.42;;
61840;SDS011;47773;53.174;6.614;2024-02-28T10:05:16;38.60;;;19.25;;
61840;SDS011;47773;53.174;6.614;2024-02-28T10:07:44;39.47;;;21.02;;
61840;SDS011;47773;53.174;6.614;2024-02-28T10:10:11;40.85;;;20.98;;
61840;SDS011;47773;53.174;6.614;2024-02-28T10:12:40;39.47;;;20.55;;
61840;SDS011;47773;53.174;6.614;2024-02-28T10:15:07;44.55;;;20.13;;
61840;SDS011;47773;53.174;6.614;2024-02-28T10:17:34;38.85;;;20.98;;
61840;SDS011;47773;53.174;6.614;2024-02-28T10:20:00;40.80;;;20.73;;
61840;SDS011;47773;53.174;6.614;2024-02-28T10:22:28;38.15;;;19.33;;
61840;SDS011;47773;53.174;6.614;2024-02-28T10:25:02;41.63;;;20.48;;
61840;SDS011;47773;53.174;6.614;2024-02-28T10:27:31;43.88;;;20.52;;
61840;SDS011;47773;53.174;6.614;2024-02-28T10:29:58;41.70;;;20.52;;
61840;SDS011;47773;53.174;6.614;2024-02-28T10:32:23;40.67;;;22.33;;
61840;SDS011;47773;53.174;6.614;2024-02-28T10:34:49;43.55;;;22.02;;
61840;SDS011;47773;53.174;6.614;2024-02-28T10:37:15;42.00;;;22.27;;
61840;SDS011;47773;53.174;6.614;2024-02-28T10:39:42;40.63;;;21.73;;
61840;SDS011;47773;53.174;6.614;2024-02-28T10:42:09;40.72;;;21.48;;
61840;SDS011;47773;53.174;6.614;2024-02-28T10:44:36;40.75;;;21.27;;
61840;SDS011;47773;53.174;6.614;2024-02-28T10:47:02;43.70;;;21.85;;
61840;SDS011;47773;53.174;6.614;2024-02-28T10:49:29;42.08;;;20.58;;
61840;SDS011;47773;53.174;6.614;2024-02-28T10:51:56;44.30;;;21.55;;
61840;SDS011;47773;53.174;6.614;2024-02-28T10:54:24;45.95;;;22.05;;
61840;SDS011;47773;53.174;6.614;2024-02-28T10:56:53;48.75;;;22.45;;
61840;SDS011;47773;53.174;6.614;2024-02-28T10:59:19;46.33;;;20.75;;
61840;SDS011;47773;53.174;6.614;2024-02-28T11:01:48;49.90;;;23.40;;
61840;SDS011;47773;53.174;6.614;2024-02-28T11:04:15;45.42;;;22.73;;
61840;SDS011;47773;53.174;6.614;2024-02-28T11:06:52;45.42;;;22.23;;
61840;SDS011;47773;53.174;6.614;2024-02-28T11:09:24;44.85;;;22.40;;
61840;SDS011;47773;53.174;6.614;2024-02-28T11:14:20;48.10;;;23.30;;
61840;SDS011;47773;53.174;6.614;2024-02-28T11:17:02;46.67;;;22.80;;
61840;SDS011;47773;53.174;6.614;2024-02-28T11:19:29;47.45;;;21.17;;
61840;SDS011;47773;53.174;6.614;2024-02-28T11:21:56;45.78;;;22.63;;
61840;SDS011;47773;53.174;6.614;2024-02-28T11:24:23;46.33;;;22.60;;
61840;SDS011;47773;53.174;6.614;2024-02-28T11:26:50;46.55;;;22.98;;
61840;SDS011;47773;53.174;6.614;2024-02-28T11:29:24;45.13;;;22.00;;
61840;SDS011;47773;53.174;6.614;2024-02-28T11:31:51;41.42;;;20.00;;
61840;SDS011;47773;53.174;6.614;2024-02-28T11:34:17;49.17;;;22.55;;
61840;SDS011;47773;53.174;6.614;2024-02-28T11:36:43;44.20;;;22.83;;
61840;SDS011;47773;53.174;6.614;2024-02-28T11:39:15;50.08;;;22.98;;
61840;SDS011;47773;53.174;6.614;2024-02-28T11:41:43;45.50;;;22.65;;
61840;SDS011;47773;53.174;6.614;2024-02-28T11:44:15;42.85;;;22.15;;
61840;SDS011;47773;53.174;6.614;2024-02-28T11:46:49;54.65;;;24.48;;
61840;SDS011;47773;53.174;6.614;2024-02-28T11:49:15;48.45;;;23.55;;
61840;SDS011;47773;53.174;6.614;2024-02-28T11:51:41;45.60;;;22.45;;
61840;SDS011;47773;53.174;6.614;2024-02-28T11:54:10;48.28;;;23.85;;
61840;SDS011;47773;53.174;6.614;2024-02-28T11:56:39;52.65;;;25.08;;
61840;SDS011;47773;53.174;6.614;2024-02-28T11:59:06;52.03;;;25.52;;
61840;SDS011;47773;53.174;6.614;2024-02-28T12:01:34;52.33;;;25.70;;
61840;SDS011;47773;53.174;6.614;2024-02-28T12:04:04;50.38;;;25.15;;
61840;SDS011;47773;53.174;6.614;2024-02-28T12:06:31;63.10;;;27.60;;
61840;SDS011;47773;53.174;6.614;2024-02-28T12:08:59;57.65;;;25.70;;
61840;SDS011;47773;53.174;6.614;2024-02-28T12:11:25;57.15;;;27.20;;
61840;SDS011;47773;53.174;6.614;2024-02-28T12:13:53;49.50;;;25.08;;
61840;SDS011;47773;53.174;6.614;2024-02-28T12:16:26;55.22;;;26.92;;
61840;SDS011;47773;53.174;6.614;2024-02-28T12:18:52;57.10;;;26.80;;
61840;SDS011;47773;53.174;6.614;2024-02-28T12:21:19;54.72;;;25.95;;
61840;SDS011;47773;53.174;6.614;2024-02-28T12:23:46;53.25;;;25.92;;
61840;SDS011;47773;53.174;6.614;2024-02-28T12:26:13;54.42;;;26.08;;
61840;SDS011;47773;53.174;6.614;2024-02-28T12:28:39;61.85;;;26.58;;
61840;SDS011;47773;53.174;6.614;2024-02-28T12:31:05;58.35;;;26.83;;
61840;SDS011;47773;53.174;6.614;2024-02-28T12:33:33;55.58;;;26.48;;
61840;SDS011;47773;53.174;6.614;2024-02-28T12:35:59;54.65;;;27.95;;
61840;SDS011;47773;53.174;6.614;2024-02-28T12:38:28;62.63;;;28.58;;
61840;SDS011;47773;53.174;6.614;2024-02-28T12:40:54;56.38;;;27.55;;
61840;SDS011;47773;53.174;6.614;2024-02-28T12:43:20;58.47;;;28.02;;
61840;SDS011;47773;53.174;6.614;2024-02-28T12:45:45;63.45;;;28.00;;
61840;SDS011;47773;53.174;6.614;2024-02-28T12:48:11;52.58;;;27.52;;
61840;SDS011;47773;53.174;6.614;2024-02-28T12:50:36;55.25;;;27.48;;
61840;SDS011;47773;53.174;6.614;2024-02-28T12:53:02;55.13;;;27.63;;
61840;SDS011;47773;53.174;6.614;2024-02-28T12:55:28;51.58;;;25.85;;
61840;SDS011;47773;53.174;6.614;2024-02-28T12:57:54;60.47;;;27.48;;
61840;SDS011;47773;53.174;6.614;2024-02-28T13:00:20;59.30;;;27.38;;
61840;SDS011;47773;53.174;6.614;2024-02-28T13:02:46;59.05;;;28.15;;
61840;SDS011;47773;53.174;6.614;2024-02-28T13:05:12;57.90;;;27.30;;
61840;SDS011;47773;53.174;6.614;2024-02-28T13:07:38;60.50;;;28.35;;
61840;SDS011;47773;53.174;6.614;2024-02-28T13:10:05;55.95;;;27.15;;
61840;SDS011;47773;53.174;6.614;2024-02-28T13:12:31;57.42;;;28.33;;
61840;SDS011;47773;53.174;6.614;2024-02-28T13:14:57;60.17;;;27.65;;
61840;SDS011;47773;53.174;6.614;2024-02-28T13:17:23;54.15;;;26.88;;
61840;SDS011;47773;53.174;6.614;2024-02-28T13:19:49;59.28;;;27.95;;
61840;SDS011;47773;53.174;6.614;2024-02-28T13:22:16;61.55;;;27.95;;
61840;SDS011;47773;53.174;6.614;2024-02-28T13:24:41;53.63;;;25.55;;
61840;SDS011;47773;53.174;6.614;2024-02-28T13:27:07;59.33;;;28.42;;
61840;SDS011;47773;53.174;6.614;2024-02-28T13:29:34;53.35;;;27.40;;
61840;SDS011;47773;53.174;6.614;2024-02-28T13:32:00;50.25;;;26.17;;
61840;SDS011;47773;53.174;6.614;2024-02-28T13:34:26;54.90;;;27.48;;
61840;SDS011;47773;53.174;6.614;2024-02-28T13:36:54;58.92;;;27.60;;
61840;SDS011;47773;53.174;6.614;2024-02-28T13:39:20;49.33;;;26.35;;
61840;SDS011;47773;53.174;6.614;2024-02-28T13:41:48;56.13;;;26.33;;
61840;SDS011;47773;53.174;6.614;2024-02-28T13:44:17;56.15;;;26.65;;
61840;SDS011;47773;53.174;6.614;2024-02-28T13:46:44;59.40;;;28.60;;
61840;SDS011;47773;53.174;6.614;2024-02-28T13:49:10;58.90;;;28.48;;
61840;SDS011;47773;53.174;6.614;2024-02-28T13:51:37;56.13;;;28.17;;
61840;SDS011;47773;53.174;6.614;2024-02-28T13:54:03;60.15;;;30.23;;
61840;SDS011;47773;53.174;6.614;2024-02-28T13:56:28;58.83;;;28.77;;
61840;SDS011;47773;53.174;6.614;2024-02-28T13:58:55;58.50;;;29.95;;
61840;SDS011;47773;53.174;6.614;2024-02-28T14:01:21;66.20;;;29.75;;
61840;SDS011;47773;53.174;6.614;2024-02-28T14:03:47;61.03;;;30.20;;
61840;SDS011;47773;53.174;6.614;2024-02-28T14:06:13;57.00;;;30.23;;
61840;SDS011;47773;53.174;6.614;2024-02-28T14:08:41;59.85;;;29.17;;
61840;SDS011;47773;53.174;6.614;2024-02-28T14:11:07;63.25;;;31.55;;
61840;SDS011;47773;53.174;6.614;2024-02-28T14:13:33;64.22;;;31.33;;
61840;SDS011;47773;53.174;6.614;2024-02-28T14:15:58;58.97;;;30.48;;
61840;SDS011;47773;53.174;6.614;2024-02-28T14:18:24;63.83;;;31.60;;
61840;SDS011;47773;53.174;6.614;2024-02-28T14:20:50;62.88;;;31.42;;
61840;SDS011;47773;53.174;6.614;2024-02-28T14:23:15;60.35;;;30.95;;
61840;SDS011;47773;53.174;6.614;2024-02-28T14:25:42;63.15;;;32.78;;
61840;SDS011;47773;53.174;6.614;2024-02-28T14:28:08;64.90;;;33.60;;
61840;SDS011;47773;53.174;6.614;2024-02-28T14:30:34;64.32;;;31.25;;
61840;SDS011;47773;53.174;6.614;2024-02-28T14:33:00;63.92;;;32.53;;
61840;SDS011;47773;53.174;6.614;2024-02-28T14:35:25;67.97;;;33.47;;
61840;SDS011;47773;53.174;6.614;2024-02-28T14:37:51;66.38;;;33.30;;
61840;SDS011;47773;53.174;6.614;2024-02-28T14:40:17;68.15;;;33.70;;
61840;SDS011;47773;53.174;6.614;2024-02-28T14:42:43;61.63;;;32.33;;
61840;SDS011;47773;53.174;6.614;2024-02-28T14:45:12;65.20;;;33.90;;
61840;SDS011;47773;53.174;6.614;2024-02-28T14:47:42;67.03;;;34.13;;
61840;SDS011;47773;53.174;6.614;2024-02-28T14:50:09;66.45;;;33.70;;
61840;SDS011;47773;53.174;6.614;2024-02-28T14:52:39;73.18;;;34.22;;
61840;SDS011;47773;53.174;6.614;2024-02-28T14:55:06;66.45;;;34.63;;
61840;SDS011;47773;53.174;6.614;2024-02-28T14:57:33;66.68;;;33.38;;
61840;SDS011;47773;53.174;6.614;2024-02-28T15:00:00;66.82;;;35.22;;
61840;SDS011;47773;53.174;6.614;2024-02-28T15:02:25;69.63;;;36.10;;
61840;SDS011;47773;53.174;6.614;2024-02-28T15:04:51;74.00;;;35.05;;
61840;SDS011;47773;53.174;6.614;2024-02-28T15:07:17;72.13;;;34.05;;